Ashaway, Rhode Island
Current Conditions -  °F | °C
As of 6:53 AM on Thursday 23 Oct 2014 (Local Time) from KWST Reporting Station
Overcast Overcast  
Wind Chill: 53°   Ceiling: 1300
Heat Index: 53°   Visibility: 10mi
Dew Point: 48°   Wind: 12mph
Humidity: 83%   Direction: 10°N
Pressure: 29.59"   Gusts: 33mph
Location:  41.43°N, 71.79°W
Report Text: KWST 231053Z AUTO 01010G29KT 10SM OVC013 12/09 A2959 RMK AO2 PK WND 01029/1051 SLP019 T01170089
Loading
Personal Weather Stations






























Interactive Weather Map
Tropical Storm Tracking
New forecast layout! Learn more

10-Day Weather Forecast

Advertisements
Track Severe Weather on mobile